createdAt,value
2022-09-06T00:07:11.638Z,1.10
2022-09-06T00:24:01.181Z,1.30
2022-09-06T00:40:53.392Z,1.10
2022-09-06T00:57:43.723Z,1.20
2022-09-06T01:14:45.525Z,1.10
2022-09-06T01:31:41.043Z,0.90
2022-09-06T01:48:41.506Z,1.30
2022-09-06T02:05:39.669Z,1.00
2022-09-06T02:22:32.352Z,1.20
2022-09-06T02:39:22.774Z,1.10
2022-09-06T02:56:14.722Z,1.40
2022-09-06T03:13:06.841Z,1.40
2022-09-06T03:29:55.425Z,1.20
2022-09-06T03:46:44.768Z,1.40
2022-09-06T04:03:33.264Z,1.30
2022-09-06T04:20:21.610Z,1.20
2022-09-06T04:37:10.359Z,1.30
2022-09-06T04:54:01.839Z,1.20
2022-09-06T05:10:52.688Z,1.10
2022-09-06T05:27:41.108Z,1.30
2022-09-06T05:44:29.969Z,1.50
2022-09-06T06:01:27.207Z,1.70
2022-09-06T06:18:16.198Z,1.40
2022-09-06T06:35:09.761Z,1.00
2022-09-06T06:51:58.436Z,1.00
2022-09-06T07:08:48.393Z,1.00
2022-09-06T07:25:38.885Z,1.20
2022-09-06T07:42:27.906Z,0.70
2022-09-06T07:59:17.003Z,0.70
2022-09-06T08:16:07.312Z,0.90
2022-09-06T08:33:00.715Z,1.60
2022-09-06T08:50:00.767Z,0.50
2022-09-06T09:06:58.048Z,0.50
2022-09-06T09:23:56.657Z,0.70
2022-09-06T09:40:54.389Z,0.90
2022-09-06T09:57:52.004Z,0.60
2022-09-06T10:14:50.312Z,0.60
2022-09-06T10:32:07.921Z,0.60
2022-09-06T10:48:56.726Z,0.50
2022-09-06T11:05:56.219Z,0.60
2022-09-06T11:23:00.214Z,0.70
2022-09-06T11:57:19.274Z,0.40
2022-09-06T12:14:11.288Z,0.40
2022-09-06T12:31:01.283Z,0.40
2022-09-06T12:47:52.421Z,0.30
2022-09-06T13:04:44.309Z,0.60
2022-09-06T13:21:36.805Z,0.50
2022-09-06T13:38:41.633Z,0.40
2022-09-06T13:55:35.209Z,0.50
2022-09-06T14:29:13.346Z,0.80
2022-09-06T14:46:08.997Z,0.50
2022-09-06T15:02:57.863Z,0.80
2022-09-06T15:19:49.249Z,0.50
2022-09-06T15:36:38.485Z,0.60
2022-09-06T15:53:26.901Z,0.50
2022-09-06T16:10:15.673Z,0.60
2022-09-06T16:27:04.261Z,0.50
2022-09-06T16:43:54.467Z,0.60
2022-09-06T17:00:46.152Z,0.90
2022-09-06T17:17:34.971Z,0.60
2022-09-06T17:34:23.233Z,1.10
2022-09-06T17:51:12.679Z,0.90
2022-09-06T18:08:01.216Z,1.40
2022-09-06T18:24:53.020Z,1.00
2022-09-06T18:42:07.463Z,1.00
2022-09-06T18:59:01.744Z,1.20
2022-09-06T19:15:52.883Z,1.50
2022-09-06T19:32:44.622Z,1.60
2022-09-06T19:49:33.119Z,1.60
2022-09-06T20:06:22.831Z,1.70
2022-09-06T20:23:13.762Z,1.70
2022-09-06T20:40:05.560Z,1.80
2022-09-06T20:56:55.500Z,2.00
2022-09-06T21:13:46.219Z,2.10
2022-09-06T21:30:35.482Z,1.70
2022-09-06T21:47:23.788Z,2.20
2022-09-06T22:04:12.892Z,2.10
2022-09-06T22:21:05.842Z,2.10
2022-09-06T22:37:58.408Z,2.30
2022-09-06T22:54:47.422Z,2.40
2022-09-06T23:11:38.642Z,2.20
2022-09-06T23:28:30.601Z,2.50
2022-09-06T23:45:20.796Z,2.70
